Time;durP1;ratioP1;P1;durP2;ratioP2;P2;SDS_P1;SDS_P2;PMS_P1;PMS_P2;Temp;Humidity;BMP_temperature;BMP_pressure;BME280_temperature;BME280_humidity;BME280_pressure;Samples;Min_cycle;Max_cycle;Signal;HPM_P1;HPM_P2
2021/09/01 00:00:43;;;;;;;9.43;6.30;;;14.50;99.90;;;;;;5058866;28;20482;-72
2021/09/01 00:03:14;;;;;;;7.60;6.70;;;14.50;99.90;;;;;;5059140;28;20810;-72
2021/09/01 00:05:41;;;;;;;10.10;7.27;;;14.50;99.90;;;;;;5058590;28;20440;-72
2021/09/01 00:08:09;;;;;;;7.93;6.43;;;14.40;99.90;;;;;;5059992;28;20455;-72
2021/09/01 00:10:40;;;;;;;10.07;6.80;;;14.40;99.90;;;;;;5059003;28;20469;-72
2021/09/01 00:13:08;;;;;;;8.50;6.50;;;14.40;99.90;;;;;;5058182;28;20438;-72
2021/09/01 00:15:36;;;;;;;7.90;6.17;;;14.40;99.90;;;;;;5058552;28;20452;-72
2021/09/01 00:18:02;;;;;;;7.00;6.30;;;14.40;99.90;;;;;;5058948;28;20475;-72
2021/09/01 00:20:29;;;;;;;8.13;7.00;;;14.40;99.90;;;;;;5058578;28;20483;-72
2021/09/01 00:22:57;;;;;;;8.30;6.27;;;14.40;99.90;;;;;;5058117;28;20896;-72
2021/09/01 00:25:24;;;;;;;10.67;7.17;;;14.40;99.90;;;;;;5057407;28;20459;-72
2021/09/01 00:27:52;;;;;;;13.53;7.30;;;14.40;99.90;;;;;;5058806;28;20459;-72
2021/09/01 00:30:20;;;;;;;8.30;6.90;;;14.40;99.90;;;;;;5059259;28;20462;-72
2021/09/01 00:32:47;;;;;;;7.67;6.80;;;14.40;99.90;;;;;;5056933;28;20459;-72
2021/09/01 00:35:14;;;;;;;8.93;6.83;;;14.40;99.90;;;;;;5057178;28;20567;-73
2021/09/01 00:37:42;;;;;;;10.00;6.90;;;14.40;99.90;;;;;;5057928;28;20459;-72
2021/09/01 00:40:12;;;;;;;9.17;6.90;;;14.40;99.90;;;;;;5056521;28;20478;-72
2021/09/01 00:42:38;;;;;;;10.40;6.70;;;14.30;99.90;;;;;;5057760;28;20491;-72
2021/09/01 00:45:08;;;;;;;8.43;6.83;;;14.30;99.90;;;;;;5060867;28;20439;-72
2021/09/01 00:47:36;;;;;;;8.03;7.20;;;14.30;99.90;;;;;;5060972;28;20478;-72
2021/09/01 00:50:06;;;;;;;8.97;7.50;;;14.30;99.90;;;;;;5061824;28;20452;-72
2021/09/01 00:52:35;;;;;;;8.10;6.87;;;14.30;99.90;;;;;;5061773;28;20455;-72
2021/09/01 00:55:04;;;;;;;8.23;7.43;;;14.30;99.90;;;;;;5061572;28;20470;-72
2021/09/01 00:57:33;;;;;;;8.00;7.00;;;14.30;99.90;;;;;;5062989;28;20843;-72
2021/09/01 01:00:03;;;;;;;11.83;7.93;;;14.30;99.90;;;;;;5060647;28;20487;-72
2021/09/01 01:02:31;;;;;;;8.83;7.80;;;14.30;99.90;;;;;;5061443;28;20456;-72
2021/09/01 01:04:59;;;;;;;8.90;7.50;;;14.30;99.90;;;;;;5060872;28;20462;-72
2021/09/01 01:07:26;;;;;;;7.97;6.57;;;14.30;99.90;;;;;;5060104;28;20455;-72
2021/09/01 01:09:54;;;;;;;10.00;7.03;;;14.30;99.90;;;;;;5060959;28;20887;-73
2021/09/01 01:12:21;;;;;;;11.77;7.23;;;14.30;99.90;;;;;;5062789;28;20454;-72
2021/09/01 01:14:53;;;;;;;8.57;7.77;;;14.20;99.90;;;;;;5061293;28;20842;-73
2021/09/01 01:17:23;;;;;;;8.50;7.60;;;14.20;99.90;;;;;;5061732;28;20553;-72
2021/09/01 01:19:54;;;;;;;8.63;7.37;;;14.10;99.90;;;;;;5061148;28;20615;-72
2021/09/01 01:22:24;;;;;;;10.07;8.03;;;14.10;99.90;;;;;;5056486;28;20440;-72
2021/09/01 01:24:57;;;;;;;12.10;7.80;;;14.10;99.90;;;;;;5055322;28;20813;-72
2021/09/01 01:27:31;;;;;;;10.63;7.70;;;14.00;99.90;;;;;;5056564;28;20455;-71
2021/09/01 01:30:05;;;;;;;10.77;8.80;;;14.00;99.90;;;;;;5055637;28;20455;-71
2021/09/01 01:32:31;;;;;;;11.50;9.03;;;14.00;99.90;;;;;;5055327;28;20451;-71
2021/09/01 01:34:58;;;;;;;10.87;8.20;;;14.00;99.90;;;;;;5055259;28;20471;-71
2021/09/01 01:37:25;;;;;;;10.60;8.57;;;13.90;99.90;;;;;;5055211;28;20921;-71
2021/09/01 01:39:53;;;;;;;8.70;7.80;;;13.90;99.90;;;;;;5055084;28;20502;-72
2021/09/01 01:42:20;;;;;;;10.33;8.00;;;13.90;99.90;;;;;;5054918;28;20477;-71
2021/09/01 01:44:48;;;;;;;10.60;8.23;;;13.90;99.90;;;;;;5054879;28;20557;-70
2021/09/01 01:47:16;;;;;;;13.53;8.27;;;13.90;99.90;;;;;;5055346;28;20815;-71
2021/09/01 01:49:44;;;;;;;10.77;8.50;;;14.00;99.90;;;;;;5054918;28;20451;-71
2021/09/01 01:52:10;;;;;;;10.93;8.40;;;14.00;99.90;;;;;;5054932;28;20467;-70
2021/09/01 01:54:37;;;;;;;10.60;8.00;;;14.00;99.90;;;;;;5054741;28;20946;-70
2021/09/01 01:57:05;;;;;;;12.00;8.27;;;14.10;99.90;;;;;;5055495;28;20450;-70
2021/09/01 01:59:32;;;;;;;10.40;8.60;;;14.10;99.90;;;;;;5054800;28;20808;-70
2021/09/01 02:02:00;;;;;;;11.20;8.50;;;14.10;99.90;;;;;;5055091;28;20463;-70
2021/09/01 02:04:28;;;;;;;11.30;9.37;;;14.10;99.90;;;;;;5055084;28;20459;-70
2021/09/01 02:06:55;;;;;;;10.83;8.73;;;14.10;99.90;;;;;;5055075;28;20927;-70
2021/09/01 02:09:21;;;;;;;10.87;8.80;;;14.10;99.90;;;;;;5054850;28;20536;-71
2021/09/01 02:11:48;;;;;;;14.80;8.10;;;14.10;99.90;;;;;;5054572;28;20459;-70
2021/09/01 02:14:16;;;;;;;16.37;8.37;;;14.10;99.90;;;;;;5054846;28;20898;-71
2021/09/01 02:16:44;;;;;;;11.83;9.03;;;14.10;99.90;;;;;;5054614;28;20459;-70
2021/09/01 02:19:12;;;;;;;9.73;8.73;;;14.10;99.90;;;;;;5054739;28;20773;-70
2021/09/01 02:21:41;;;;;;;10.70;8.90;;;14.10;99.90;;;;;;5054381;28;20479;-70
2021/09/01 02:24:09;;;;;;;11.40;9.43;;;14.10;99.90;;;;;;5054481;28;20899;-70
2021/09/01 02:26:38;;;;;;;10.87;9.30;;;14.00;99.90;;;;;;5054687;28;20464;-70
2021/09/01 02:29:05;;;;;;;10.80;9.07;;;14.00;99.90;;;;;;5054800;28;20516;-70
2021/09/01 02:31:33;;;;;;;11.07;8.90;;;14.00;99.90;;;;;;5054609;28;20962;-70
2021/09/01 02:34:00;;;;;;;13.23;9.50;;;14.00;99.90;;;;;;5054959;28;20466;-70
2021/09/01 02:36:28;;;;;;;10.90;9.17;;;13.90;99.90;;;;;;5054613;28;20463;-70
2021/09/01 02:38:54;;;;;;;12.77;9.47;;;13.90;99.90;;;;;;5054705;28;20472;-70
2021/09/01 02:41:23;;;;;;;11.07;9.03;;;13.90;99.90;;;;;;5054975;28;20537;-71
2021/09/01 02:43:51;;;;;;;14.93;9.87;;;13.90;99.90;;;;;;5053905;28;20494;-71
2021/09/01 02:46:19;;;;;;;10.07;9.07;;;13.90;99.90;;;;;;5054860;28;20528;-71
2021/09/01 02:48:47;;;;;;;12.30;9.70;;;13.90;99.90;;;;;;5054943;28;20459;-71
2021/09/01 02:51:13;;;;;;;12.37;10.03;;;13.90;99.90;;;;;;5054901;28;20455;-71
2021/09/01 02:53:43;;;;;;;12.77;9.87;;;13.80;99.90;;;;;;5054408;28;20463;-71
2021/09/01 02:56:10;;;;;;;14.20;10.10;;;13.80;99.90;;;;;;5054703;28;20452;-71
2021/09/01 02:58:37;;;;;;;11.73;9.33;;;13.80;99.90;;;;;;5054757;28;20456;-71
2021/09/01 03:01:03;;;;;;;12.83;10.30;;;13.80;99.90;;;;;;5054642;28;20991;-71
2021/09/01 03:03:31;;;;;;;11.37;9.40;;;13.80;99.90;;;;;;5054207;28;20786;-71
2021/09/01 03:05:58;;;;;;;12.67;9.93;;;13.80;99.90;;;;;;5054573;28;20455;-71
2021/09/01 03:08:24;;;;;;;11.20;9.97;;;13.80;99.90;;;;;;5054586;28;20466;-71
2021/09/01 03:10:52;;;;;;;16.63;11.13;;;13.80;99.90;;;;;;5054678;28;20509;-70
2021/09/01 03:13:20;;;;;;;10.57;9.33;;;13.80;99.90;;;;;;5054410;28;20466;-71
2021/09/01 03:15:47;;;;;;;13.60;10.20;;;13.80;99.90;;;;;;5054384;28;20459;-71
2021/09/01 03:18:15;;;;;;;11.07;9.90;;;13.80;99.90;;;;;;5054884;28;20465;-71
2021/09/01 03:20:43;;;;;;;12.60;9.80;;;13.80;99.90;;;;;;5054466;28;20479;-71
2021/09/01 03:23:10;;;;;;;12.97;10.63;;;13.80;99.90;;;;;;5054366;28;20532;-71
2021/09/01 03:25:36;;;;;;;15.10;10.17;;;13.80;99.90;;;;;;5054063;28;20470;-71
2021/09/01 03:28:05;;;;;;;12.47;10.20;;;13.70;99.90;;;;;;5054317;28;20522;-71
2021/09/01 03:30:33;;;;;;;12.03;9.70;;;13.70;99.90;;;;;;5057257;28;20550;-71
2021/09/01 03:33:00;;;;;;;12.03;10.27;;;13.70;99.90;;;;;;5057905;28;20455;-71
2021/09/01 03:35:27;;;;;;;12.80;10.03;;;13.70;99.90;;;;;;5057917;28;20455;-71
2021/09/01 03:37:55;;;;;;;12.67;11.10;;;13.70;99.90;;;;;;5057719;28;20458;-71
2021/09/01 03:40:23;;;;;;;11.13;9.67;;;13.60;99.90;;;;;;5057576;28;20483;-71
2021/09/01 03:42:50;;;;;;;15.37;10.47;;;13.60;99.90;;;;;;5057344;28;20479;-71
2021/09/01 03:45:19;;;;;;;13.80;10.40;;;13.60;99.90;;;;;;5057561;28;20451;-71
2021/09/01 03:47:47;;;;;;;13.77;10.03;;;13.60;99.90;;;;;;5057386;28;20935;-71
2021/09/01 03:50:14;;;;;;;13.20;10.10;;;13.60;99.90;;;;;;5057301;28;20466;-71
2021/09/01 03:52:41;;;;;;;12.70;10.13;;;13.60;99.90;;;;;;5056961;28;20920;-71
2021/09/01 03:55:09;;;;;;;12.60;10.47;;;13.60;99.90;;;;;;5057543;28;20475;-71
2021/09/01 03:57:38;;;;;;;15.33;10.27;;;13.60;99.90;;;;;;5057276;28;20545;-71
2021/09/01 04:00:06;;;;;;;11.47;9.83;;;13.60;99.90;;;;;;5057252;28;20463;-71
2021/09/01 04:02:35;;;;;;;11.50;10.23;;;13.50;99.90;;;;;;5057364;28;20771;-71
2021/09/01 04:05:01;;;;;;;13.37;11.27;;;13.50;99.90;;;;;;5057047;28;20466;-70
2021/09/01 04:07:29;;;;;;;18.73;10.80;;;13.50;99.90;;;;;;5057706;28;20473;-71
2021/09/01 04:09:56;;;;;;;11.50;10.00;;;13.50;99.90;;;;;;5056951;28;20459;-71
2021/09/01 04:12:23;;;;;;;13.43;10.70;;;13.50;99.90;;;;;;5057256;28;20528;-71
2021/09/01 04:14:52;;;;;;;13.27;10.80;;;13.50;99.90;;;;;;5056548;28;20462;-71
2021/09/01 04:17:19;;;;;;;11.80;10.00;;;13.50;99.90;;;;;;5057599;28;20470;-71
2021/09/01 04:19:47;;;;;;;14.63;11.13;;;13.40;99.90;;;;;;5056765;28;20466;-72
2021/09/01 04:22:14;;;;;;;15.00;10.10;;;13.50;99.90;;;;;;5057080;28;20569;-72
2021/09/01 04:24:41;;;;;;;11.80;10.03;;;13.40;99.90;;;;;;5056737;28;20467;-72
2021/09/01 04:27:08;;;;;;;14.77;10.27;;;13.40;99.90;;;;;;5056853;28;20562;-71
2021/09/01 04:29:35;;;;;;;13.53;10.63;;;13.40;99.90;;;;;;5056613;28;20470;-72
2021/09/01 04:32:04;;;;;;;12.50;9.40;;;13.40;99.90;;;;;;5056971;28;20455;-72
2021/09/01 04:34:30;;;;;;;13.20;10.70;;;13.40;99.90;;;;;;5057255;28;20459;-72
2021/09/01 04:37:00;;;;;;;13.23;10.50;;;13.50;99.90;;;;;;5057748;28;20454;-73
2021/09/01 04:39:28;;;;;;;11.43;9.67;;;13.50;99.90;;;;;;5057501;28;20463;-73
2021/09/01 04:41:56;;;;;;;12.53;9.87;;;13.50;99.90;;;;;;5057123;28;20483;-73
2021/09/01 04:44:22;;;;;;;9.73;8.50;;;13.50;99.90;;;;;;5056441;28;20825;-73
2021/09/01 04:46:49;;;;;;;14.33;10.53;;;13.50;99.90;;;;;;5057417;28;20455;-73
2021/09/01 04:49:16;;;;;;;12.03;10.10;;;13.50;99.90;;;;;;5056353;28;20466;-73
2021/09/01 04:51:47;;;;;;;17.50;10.00;;;13.60;99.90;;;;;;5057301;28;20512;-73
2021/09/01 04:54:15;;;;;;;12.57;9.90;;;13.60;99.90;;;;;;5056855;28;20455;-73
2021/09/01 04:56:42;;;;;;;12.07;9.70;;;13.60;99.90;;;;;;5056176;28;20467;-73
2021/09/01 04:59:09;;;;;;;11.87;10.37;;;13.70;99.90;;;;;;5056489;28;20460;-73
2021/09/01 05:01:37;;;;;;;11.20;9.73;;;13.70;99.90;;;;;;5056921;28;20490;-73
2021/09/01 05:04:03;;;;;;;12.43;9.20;;;13.70;99.90;;;;;;5056617;28;20459;-73
2021/09/01 05:06:31;;;;;;;12.37;9.53;;;13.70;99.90;;;;;;5057061;28;20456;-73
2021/09/01 05:08:59;;;;;;;12.90;10.60;;;13.80;99.90;;;;;;5056544;28;20466;-73
2021/09/01 05:11:27;;;;;;;13.50;9.57;;;13.80;99.90;;;;;;5056974;28;20928;-73
2021/09/01 05:13:54;;;;;;;12.03;9.00;;;13.80;99.90;;;;;;5057359;28;20545;-73
2021/09/01 05:16:23;;;;;;;12.50;9.73;;;13.90;99.90;;;;;;5056926;28;20459;-72
2021/09/01 05:18:50;;;;;;;11.17;8.80;;;13.80;99.90;;;;;;5056804;28;20463;-72
2021/09/01 05:21:19;;;;;;;11.00;8.80;;;13.80;99.90;;;;;;5056544;28;20504;-73
2021/09/01 05:23:50;;;;;;;10.27;9.27;;;13.90;99.90;;;;;;5057307;28;20470;-72
2021/09/01 05:26:21;;;;;;;11.50;9.40;;;13.90;99.90;;;;;;5057922;28;20439;-74
2021/09/01 05:28:51;;;;;;;11.13;9.23;;;13.90;99.90;;;;;;5059453;28;20435;-73
2021/09/01 05:31:20;;;;;;;12.87;9.33;;;13.90;99.90;;;;;;5058215;28;20459;-73
2021/09/01 05:33:51;;;;;;;10.37;8.83;;;13.90;99.90;;;;;;5057364;28;20455;-72
2021/09/01 05:36:18;;;;;;;12.33;8.87;;;13.90;99.90;;;;;;5059658;28;20439;-72
2021/09/01 05:38:47;;;;;;;14.30;8.47;;;13.90;99.90;;;;;;5059339;28;20455;-74
2021/09/01 05:41:16;;;;;;;11.83;9.00;;;13.90;99.90;;;;;;5058304;28;20479;-72
2021/09/01 05:43:45;;;;;;;12.70;10.03;;;13.90;99.90;;;;;;5057643;28;20479;-72
2021/09/01 05:46:16;;;;;;;15.47;10.27;;;14.00;99.90;;;;;;5059015;28;20517;-74
2021/09/01 05:48:43;;;;;;;10.50;8.47;;;14.10;99.90;;;;;;5056973;28;20455;-73
2021/09/01 05:51:10;;;;;;;10.57;7.90;;;14.10;99.90;;;;;;5057983;28;20455;-73
2021/09/01 05:53:38;;;;;;;13.57;9.10;;;14.10;99.90;;;;;;5056885;28;20463;-73
2021/09/01 05:56:10;;;;;;;10.67;8.43;;;14.20;99.90;;;;;;5055800;28;20455;-73
2021/09/01 05:58:43;;;;;;;9.97;8.97;;;14.30;99.90;;;;;;5055462;28;20835;-72
2021/09/01 06:01:15;;;;;;;10.17;8.40;;;14.40;99.90;;;;;;5054707;28;20471;-72
2021/09/01 06:03:45;;;;;;;9.87;8.27;;;14.40;99.90;;;;;;5055374;28;20439;-72
2021/09/01 06:06:17;;;;;;;10.83;8.40;;;14.50;99.90;;;;;;5054659;28;20938;-73
2021/09/01 06:08:47;;;;;;;9.87;7.77;;;14.60;99.90;;;;;;5054722;28;20443;-73
2021/09/01 06:11:14;;;;;;;11.40;8.20;;;14.70;99.90;;;;;;5055315;28;20517;-72
2021/09/01 06:13:42;;;;;;;9.23;7.63;;;14.80;99.90;;;;;;5055094;28;20473;-72
2021/09/01 06:16:09;;;;;;;8.53;7.63;;;14.80;99.90;;;;;;5054636;28;20463;-72
2021/09/01 06:18:36;;;;;;;16.03;7.03;;;14.80;99.90;;;;;;5054627;28;20459;-73
2021/09/01 06:21:05;;;;;;;9.63;8.17;;;14.90;99.90;;;;;;5054204;28;20962;-72
2021/09/01 06:23:31;;;;;;;9.70;8.10;;;15.00;99.90;;;;;;5054306;28;20467;-72
2021/09/01 06:25:58;;;;;;;8.77;7.87;;;15.00;99.90;;;;;;5054569;28;20518;-72
2021/09/01 06:28:25;;;;;;;16.93;8.03;;;15.10;99.90;;;;;;5054622;28;20538;-73
2021/09/01 06:30:53;;;;;;;12.00;8.00;;;15.10;99.90;;;;;;5054463;28;20466;-73
2021/09/01 06:33:19;;;;;;;10.57;8.27;;;15.10;99.90;;;;;;5054692;28;20528;-73
2021/09/01 06:35:48;;;;;;;9.27;7.50;;;15.20;99.90;;;;;;5054289;28;20467;-73
2021/09/01 06:38:17;;;;;;;14.13;8.80;;;15.30;99.90;;;;;;5054043;28;20537;-72
2021/09/01 06:40:45;;;;;;;11.23;7.73;;;15.30;99.90;;;;;;5054297;28;20470;-72
2021/09/01 06:43:12;;;;;;;10.10;7.23;;;15.40;99.90;;;;;;5054064;28;20494;-72
2021/09/01 06:45:40;;;;;;;10.10;8.03;;;15.50;99.90;;;;;;5054165;28;20451;-73
2021/09/01 06:48:10;;;;;;;10.40;7.87;;;15.50;99.90;;;;;;5054056;28;20459;-72
2021/09/01 06:50:37;;;;;;;9.17;7.80;;;15.60;99.90;;;;;;5053824;28;20467;-73
2021/09/01 06:53:04;;;;;;;8.70;7.67;;;15.60;99.90;;;;;;5053873;28;20466;-73
2021/09/01 06:55:32;;;;;;;8.43;7.47;;;15.70;99.90;;;;;;5053749;28;20908;-73
2021/09/01 06:58:00;;;;;;;10.00;8.00;;;15.80;99.90;;;;;;5053966;28;20460;-71
2021/09/01 07:00:26;;;;;;;9.10;7.00;;;15.80;99.90;;;;;;5053636;28;20570;-72
2021/09/01 07:02:55;;;;;;;10.00;6.63;;;15.90;99.90;;;;;;5053928;28;20486;-72
2021/09/01 07:05:23;;;;;;;8.10;7.07;;;15.90;99.90;;;;;;5057723;28;20462;-72
2021/09/01 07:07:50;;;;;;;13.10;7.77;;;16.00;99.90;;;;;;5057975;28;20842;-72
2021/09/01 07:10:17;;;;;;;7.63;6.70;;;16.10;99.90;;;;;;5057943;28;20474;-72
2021/09/01 07:12:45;;;;;;;10.23;7.80;;;16.20;99.90;;;;;;5058231;28;20459;-71
2021/09/01 07:15:13;;;;;;;8.03;6.70;;;16.20;99.90;;;;;;5059579;28;20451;-73
2021/09/01 07:17:41;;;;;;;9.13;6.97;;;16.20;99.90;;;;;;5057340;28;20919;-73
2021/09/01 07:20:09;;;;;;;8.40;6.87;;;16.30;99.90;;;;;;5057660;28;20573;-72
2021/09/01 07:22:37;;;;;;;9.80;6.33;;;16.30;99.90;;;;;;5057750;28;20478;-72
2021/09/01 07:25:07;;;;;;;10.00;6.57;;;16.40;99.90;;;;;;5057722;28;20455;-72
2021/09/01 07:27:34;;;;;;;11.07;7.67;;;16.50;99.90;;;;;;5057139;28;20805;-72
2021/09/01 07:30:02;;;;;;;9.97;6.60;;;16.50;99.90;;;;;;5057365;28;20485;-72
2021/09/01 07:32:29;;;;;;;9.70;6.57;;;16.60;99.90;;;;;;5057563;28;20467;-72
2021/09/01 07:34:57;;;;;;;7.83;6.47;;;16.60;99.90;;;;;;5057115;28;20459;-72
2021/09/01 07:37:24;;;;;;;10.87;7.13;;;16.70;99.90;;;;;;5057692;28;20466;-73
2021/09/01 07:39:50;;;;;;;9.53;7.60;;;16.80;99.90;;;;;;5057147;28;20459;-72
2021/09/01 07:42:19;;;;;;;8.77;7.40;;;16.90;99.90;;;;;;5057827;28;20478;-72
2021/09/01 07:44:45;;;;;;;10.43;6.40;;;17.10;99.90;;;;;;5056921;28;20776;-72
2021/09/01 07:47:13;;;;;;;8.20;6.47;;;17.10;99.90;;;;;;5057548;28;20520;-72
2021/09/01 07:49:43;;;;;;;10.07;6.47;;;17.20;99.90;;;;;;5056811;28;20481;-72
2021/09/01 07:52:12;;;;;;;10.83;9.00;;;17.40;99.90;;;;;;5057257;28;20756;-72
2021/09/01 07:54:39;;;;;;;10.87;6.73;;;17.50;99.90;;;;;;5057016;28;20455;-72
2021/09/01 07:57:06;;;;;;;6.73;6.03;;;17.60;99.90;;;;;;5057683;28;20461;-72
2021/09/01 07:59:33;;;;;;;8.90;6.10;;;17.70;99.90;;;;;;5057222;28;20459;-73
2021/09/01 08:02:01;;;;;;;8.10;6.57;;;17.80;99.90;;;;;;5057689;28;20485;-73
2021/09/01 08:04:29;;;;;;;9.50;6.40;;;17.90;99.90;;;;;;5057880;28;20525;-73
2021/09/01 08:06:55;;;;;;;9.97;7.17;;;18.00;99.90;;;;;;5057121;28;20538;-72
2021/09/01 08:09:23;;;;;;;8.90;7.00;;;18.00;99.90;;;;;;5056694;28;20466;-73
2021/09/01 08:11:50;;;;;;;10.67;7.00;;;18.10;99.90;;;;;;5057140;28;20459;-72
2021/09/01 08:14:17;;;;;;;15.20;6.93;;;18.10;99.90;;;;;;5057041;28;20528;-72
2021/09/01 08:16:43;;;;;;;8.20;6.80;;;18.10;99.90;;;;;;5056681;28;20790;-72
2021/09/01 08:19:12;;;;;;;8.33;7.17;;;18.10;99.90;;;;;;5056692;28;20521;-72
2021/09/01 08:21:40;;;;;;;7.07;6.37;;;18.20;99.90;;;;;;5056860;28;20557;-72
2021/09/01 08:24:09;;;;;;;8.20;6.83;;;18.20;99.90;;;;;;5056441;28;20474;-72
2021/09/01 08:26:35;;;;;;;11.73;7.40;;;18.20;99.90;;;;;;5056382;28;20506;-72
2021/09/01 08:29:04;;;;;;;8.23;6.93;;;18.20;99.90;;;;;;5056306;28;20459;-72
2021/09/01 08:31:32;;;;;;;9.57;7.70;;;18.20;99.90;;;;;;5056557;28;20470;-72
2021/09/01 08:33:58;;;;;;;8.53;7.60;;;18.10;99.90;;;;;;5056631;28;20467;-72
2021/09/01 08:36:26;;;;;;;9.10;7.80;;;18.10;99.90;;;;;;5056522;28;20459;-72
2021/09/01 08:38:55;;;;;;;10.23;7.40;;;18.10;99.90;;;;;;5056156;28;20463;-72
2021/09/01 08:41:23;;;;;;;8.87;7.07;;;18.10;99.90;;;;;;5056211;28;20498;-72
2021/09/01 08:43:50;;;;;;;13.13;8.20;;;18.20;99.90;;;;;;5055901;28;20487;-73
2021/09/01 08:46:18;;;;;;;9.03;8.10;;;18.10;99.90;;;;;;5056508;28;20649;-73
2021/09/01 08:48:45;;;;;;;11.60;8.30;;;18.20;99.90;;;;;;5056245;28;20463;-71
2021/09/01 08:51:12;;;;;;;9.60;8.13;;;18.20;99.90;;;;;;5056326;28;20470;-71
2021/09/01 08:53:39;;;;;;;10.77;9.00;;;18.10;99.90;;;;;;5055538;28;20451;-72
2021/09/01 08:56:11;;;;;;;11.17;8.33;;;18.20;99.90;;;;;;5055959;28;20455;-72
2021/09/01 08:58:38;;;;;;;10.87;8.37;;;18.10;99.90;;;;;;5056247;28;20449;-72
2021/09/01 09:01:04;;;;;;;12.10;8.87;;;18.00;99.90;;;;;;5056153;28;20463;-72
2021/09/01 09:03:31;;;;;;;9.87;8.30;;;17.90;99.90;;;;;;5056570;28;20521;-72
2021/09/01 09:06:04;;;;;;;10.50;8.97;;;17.80;99.90;;;;;;5056163;28;20461;-72
2021/09/01 09:08:33;;;;;;;13.73;10.00;;;17.80;99.90;;;;;;5055626;28;20482;-71
2021/09/01 09:11:00;;;;;;;15.63;9.83;;;17.80;99.90;;;;;;5055736;28;20816;-71
2021/09/01 09:13:34;;;;;;;11.93;8.90;;;17.80;99.90;;;;;;5055695;28;20505;-71
2021/09/01 09:16:07;;;;;;;11.03;8.97;;;17.80;99.90;;;;;;5055545;28;20834;-71
2021/09/01 09:18:35;;;;;;;11.77;9.40;;;17.70;99.90;;;;;;5055817;28;20447;-71
2021/09/01 09:21:13;;;;;;;11.40;10.03;;;17.80;99.90;;;;;;5056165;28;20451;-71
2021/09/01 09:23:40;;;;;;;12.47;9.87;;;17.60;99.90;;;;;;5055648;28;20575;-71
2021/09/01 09:26:23;;;;;;;11.10;9.43;;;17.60;99.90;;;;;;5055530;28;20463;-71
2021/09/01 09:29:08;;;;;;;13.60;10.60;;;17.60;99.90;;;;;;5056216;28;20450;-71
2021/09/01 09:31:35;;;;;;;13.93;9.70;;;17.40;99.90;;;;;;5054829;28;20459;-71
2021/09/01 09:34:07;;;;;;;10.00;9.00;;;17.40;99.90;;;;;;5054977;28;20459;-71
2021/09/01 09:36:35;;;;;;;14.83;10.17;;;17.50;99.90;;;;;;5055469;28;20455;-71
2021/09/01 09:39:03;;;;;;;10.10;9.10;;;17.60;99.90;;;;;;5054761;28;20463;-71
2021/09/01 09:41:30;;;;;;;12.30;10.20;;;17.70;99.90;;;;;;5055542;28;20455;-71
2021/09/01 09:43:59;;;;;;;17.87;10.40;;;17.90;99.90;;;;;;5054667;28;20487;-72
2021/09/01 09:46:28;;;;;;;11.33;8.90;;;18.00;99.90;;;;;;5055450;28;20466;-72
2021/09/01 09:49:05;;;;;;;13.83;10.60;;;17.90;99.90;;;;;;5054869;28;20455;-72
2021/09/01 09:51:38;;;;;;;12.10;9.90;;;17.90;99.90;;;;;;5055347;28;20501;-72
2021/09/01 09:54:15;;;;;;;15.60;11.67;;;17.80;99.90;;;;;;5054741;28;20496;-71
2021/09/01 09:56:42;;;;;;;14.90;11.47;;;17.70;99.90;;;;;;5055038;28;20443;-71
2021/09/01 09:59:14;;;;;;;14.73;10.97;;;17.70;99.90;;;;;;5056383;28;20469;-72
2021/09/01 10:01:44;;;;;;;16.53;11.20;;;17.70;99.90;;;;;;5054799;28;20440;-72
2021/09/01 10:04:11;;;;;;;14.83;10.43;;;17.60;99.90;;;;;;5054425;28;20469;-72
2021/09/01 10:06:40;;;;;;;12.43;10.37;;;17.50;99.90;;;;;;5056241;28;20903;-71
2021/09/01 10:09:08;;;;;;;11.47;10.10;;;17.50;99.90;;;;;;5055202;28;20462;-71
2021/09/01 10:11:35;;;;;;;13.60;10.67;;;17.50;99.90;;;;;;5055040;28;20451;-71
2021/09/01 10:14:02;;;;;;;12.80;9.63;;;17.50;99.90;;;;;;5054143;28;20911;-72
2021/09/01 10:16:32;;;;;;;11.17;9.83;;;17.50;99.90;;;;;;5053941;28;20923;-71
2021/09/01 10:19:05;;;;;;;12.03;9.23;;;17.60;99.90;;;;;;5054520;28;20972;-72
2021/09/01 10:21:35;;;;;;;10.20;9.10;;;17.60;99.90;;;;;;5054913;28;20788;-71
2021/09/01 10:24:21;;;;;;;13.00;9.03;;;17.80;99.90;;;;;;5054270;28;20494;-71
2021/09/01 10:27:10;;;;;;;13.97;9.07;;;18.00;99.90;;;;;;5054134;28;20447;-71
2021/09/01 10:29:42;;;;;;;11.83;8.33;;;18.10;99.90;;;;;;5054851;28;20443;-71
2021/09/01 10:32:17;;;;;;;16.30;9.40;;;18.20;99.90;;;;;;5054251;28;20455;-71
2021/09/01 10:34:47;;;;;;;10.53;8.37;;;18.20;99.90;;;;;;5054455;28;20513;-70
2021/09/01 10:37:37;;;;;;;11.13;8.63;;;18.30;99.90;;;;;;5055042;28;20470;-71
2021/09/01 10:40:04;;;;;;;12.10;8.60;;;18.40;99.90;;;;;;5047886;28;20528;-72
2021/09/01 10:42:40;;;;;;;9.70;7.43;;;18.50;99.90;;;;;;5058256;28;20549;-72
2021/09/01 10:45:10;;;;;;;9.87;7.47;;;18.60;99.90;;;;;;5058367;28;20532;-71
2021/09/01 10:48:13;;;;;;;8.30;7.50;;;18.70;99.90;;;;;;5058606;28;20466;-71
2021/09/01 10:50:44;;;;;;;10.80;6.97;;;18.90;99.90;;;;;;5058445;28;20763;-72
2021/09/01 10:53:20;;;;;;;12.90;8.63;;;19.10;99.90;;;;;;5057530;28;20435;-71
2021/09/01 10:56:01;;;;;;;10.43;7.63;;;19.10;99.90;;;;;;5058141;28;20447;-72
2021/09/01 10:58:39;;;;;;;11.10;7.80;;;19.20;99.90;;;;;;5058273;28;20542;-71
2021/09/01 11:01:12;;;;;;;9.20;7.53;;;19.30;99.90;;;;;;5058069;28;20588;-71
2021/09/01 11:03:41;;;;;;;10.47;7.30;;;19.40;99.90;;;;;;5058227;28;20471;-71
2021/09/01 11:06:15;;;;;;;9.07;8.07;;;19.40;99.90;;;;;;5057954;28;20505;-71
2021/09/01 11:09:00;;;;;;;10.07;7.70;;;19.60;99.90;;;;;;5057941;28;20458;-71
2021/09/01 11:11:47;;;;;;;10.60;7.77;;;19.50;99.90;;;;;;5057445;28;20439;-71
2021/09/01 11:14:27;;;;;;;9.80;7.57;;;19.50;99.90;;;;;;5058028;28;20530;-71
2021/09/01 11:16:54;;;;;;;9.97;7.20;;;19.60;99.90;;;;;;5058309;28;20530;-72
2021/09/01 11:19:22;;;;;;;10.43;7.97;;;19.70;99.90;;;;;;5060407;28;20795;-71
2021/09/01 11:21:50;;;;;;;10.33;8.03;;;19.70;99.90;;;;;;5058988;28;20455;-71
2021/09/01 11:24:19;;;;;;;10.57;8.77;;;19.70;99.90;;;;;;5057024;28;20485;-71
2021/09/01 11:26:47;;;;;;;9.37;7.93;;;19.60;99.90;;;;;;5057373;28;20465;-71
2021/09/01 11:29:15;;;;;;;13.33;8.10;;;19.50;99.90;;;;;;5057697;28;20470;-74
2021/09/01 11:31:51;;;;;;;10.20;8.73;;;19.60;99.90;;;;;;5057663;28;20465;-72
2021/09/01 11:34:19;;;;;;;14.27;8.70;;;19.70;99.90;;;;;;5058426;28;20443;-72
2021/09/01 11:36:47;;;;;;;9.27;8.00;;;19.80;99.90;;;;;;5057423;28;20782;-71
2021/09/01 11:39:16;;;;;;;8.77;7.17;;;19.90;99.90;;;;;;5056997;28;20455;-72
2021/09/01 11:41:45;;;;;;;9.60;8.50;;;20.10;99.90;;;;;;5057352;28;20450;-71
2021/09/01 11:44:14;;;;;;;9.47;8.20;;;20.30;99.90;;;;;;5057445;28;20632;-71
2021/09/01 11:46:42;;;;;;;9.00;8.03;;;20.50;99.90;;;;;;5057461;28;20470;-71
2021/09/01 11:49:10;;;;;;;8.43;7.53;;;20.40;99.90;;;;;;5057278;28;20930;-71
2021/09/01 11:51:39;;;;;;;11.07;8.50;;;20.30;99.90;;;;;;5057507;28;20463;-71
2021/09/01 11:54:08;;;;;;;8.60;7.27;;;20.30;99.90;;;;;;5057681;28;20455;-72
2021/09/01 11:56:36;;;;;;;8.43;7.60;;;20.40;99.90;;;;;;5056878;28;20466;-70
2021/09/01 11:59:05;;;;;;;7.60;6.80;;;20.50;99.90;;;;;;5057342;28;20795;-71
2021/09/01 12:01:33;;;;;;;7.33;6.40;;;20.70;99.90;;;;;;5057482;28;20466;-71
2021/09/01 12:04:01;;;;;;;7.93;7.20;;;20.80;99.90;;;;;;5057103;28;20478;-72
2021/09/01 12:06:36;;;;;;;8.37;6.90;;;21.00;99.90;;;;;;5056913;28;20841;-72
2021/09/01 12:09:04;;;;;;;8.43;7.50;;;21.10;99.90;;;;;;5056886;28;20458;-72
2021/09/01 12:11:33;;;;;;;10.40;6.87;;;21.20;99.90;;;;;;5057004;28;20455;-72
2021/09/01 12:14:05;;;;;;;8.77;7.70;;;21.20;99.90;;;;;;5057047;28;20815;-72
2021/09/01 12:16:32;;;;;;;8.83;7.30;;;20.90;99.90;;;;;;5057034;28;20439;-71
2021/09/01 12:19:07;;;;;;;9.03;6.83;;;20.60;99.90;;;;;;5057075;28;20528;-72
2021/09/01 12:21:54;;;;;;;7.40;6.60;;;20.60;99.90;;;;;;5057383;28;20564;-72
2021/09/01 12:24:26;;;;;;;7.83;6.50;;;21.00;99.90;;;;;;5056310;28;20471;-72
2021/09/01 12:27:04;;;;;;;7.07;6.20;;;21.40;99.90;;;;;;5056433;28;20491;-72
2021/09/01 12:29:38;;;;;;;10.70;6.60;;;21.80;99.90;;;;;;5056191;28;20522;-71
2021/09/01 12:32:07;;;;;;;7.13;6.20;;;22.10;99.90;;;;;;5056718;28;20443;-71
2021/09/01 12:34:39;;;;;;;6.80;5.67;;;22.20;99.90;;;;;;5056738;28;20456;-71
2021/09/01 12:37:12;;;;;;;8.20;6.43;;;22.10;99.90;;;;;;5057301;28;20513;-71
2021/09/01 12:39:50;;;;;;;7.77;6.97;;;22.10;99.90;;;;;;5056880;28;20478;-71
2021/09/01 12:42:31;;;;;;;8.80;6.40;;;22.00;99.90;;;;;;5057077;28;20443;-71
2021/09/01 12:45:01;;;;;;;8.57;5.90;;;21.90;99.90;;;;;;5056326;28;20474;-71
2021/09/01 12:47:29;;;;;;;6.60;5.80;;;21.90;99.90;;;;;;5055788;28;20924;-71